Time,TemperatureF,DewpointF,PressureIn,WindDirection,WindDirectionDegrees,WindSpeedMPH,WindSpeedGustMPH,Humidity,HourlyPrecipIn,Conditions,Clouds,dailyrainin,SoftwareType,DateUTC
2013-05-13 00:03:00,45.7,34.2,29.60,SSW,202,0.0,0.0,64,0.00,,,0.00,meteohub,2013-05-13 05:03:00,
2013-05-13 00:08:00,45.3,33.8,29.60,SSW,202,0.0,0.0,64,0.00,,,0.00,meteohub,2013-05-13 05:08:00,
2013-05-13 00:13:00,45.3,34.3,29.60,SSW,202,0.0,0.0,65,0.00,,,0.00,meteohub,2013-05-13 05:13:00,
2013-05-13 00:18:00,45.1,34.2,29.57,SSW,202,0.0,0.0,65,0.00,,,0.00,meteohub,2013-05-13 05:18:00,
2013-05-13 00:23:00,45.0,34.0,29.57,SSW,202,0.0,0.0,65,0.00,,,0.00,meteohub,2013-05-13 05:23:00,
2013-05-13 00:29:00,44.8,33.8,29.57,SSW,202,0.0,0.0,65,0.00,,,0.00,meteohub,2013-05-13 05:29:00,
2013-05-13 00:34:00,44.8,34.2,29.57,SSW,202,0.0,0.0,66,0.00,,,0.00,meteohub,2013-05-13 05:34:00,
2013-05-13 00:39:00,44.6,34.0,29.57,SSW,202,0.0,0.0,66,0.00,,,0.00,meteohub,2013-05-13 05:39:00,
2013-05-13 00:44:00,44.4,34.2,29.57,South,180,0.0,0.0,67,0.00,,,0.00,meteohub,2013-05-13 05:44:00,
2013-05-13 00:49:00,44.4,34.5,29.57,South,180,0.0,0.0,68,0.00,,,0.00,meteohub,2013-05-13 05:49:00,
2013-05-13 00:54:00,44.2,34.3,29.57,South,180,0.0,0.0,68,0.00,,,0.00,meteohub,2013-05-13 05:54:00,
2013-05-13 00:59:00,44.1,34.2,29.57,South,180,0.0,0.0,68,0.00,,,0.00,meteohub,2013-05-13 05:59:00,
2013-05-13 01:04:00,43.9,33.6,29.60,SSE,158,0.0,0.0,67,0.00,,,0.00,meteohub,2013-05-13 06:04:00,
2013-05-13 01:09:00,44.1,33.8,29.60,ENE,68,0.0,0.0,67,0.00,,,0.00,meteohub,2013-05-13 06:09:00,
2013-05-13 01:14:00,43.9,34.0,29.60,ENE,68,0.0,0.0,68,0.00,,,0.00,meteohub,2013-05-13 06:14:00,
2013-05-13 01:19:00,43.9,34.3,29.60,South,180,1.0,0.0,69,0.00,,,0.00,meteohub,2013-05-13 06:19:00,
2013-05-13 01:24:00,43.7,34.5,29.60,South,180,0.0,2.0,70,0.00,,,0.00,meteohub,2013-05-13 06:24:00,
2013-05-13 01:29:00,43.7,34.2,29.60,South,180,0.0,2.0,69,0.00,,,0.00,meteohub,2013-05-13 06:29:00,
2013-05-13 01:35:00,43.5,34.3,29.57,South,180,0.0,2.0,70,0.00,,,0.00,meteohub,2013-05-13 06:35:00,
2013-05-13 01:40:00,43.3,34.2,29.57,East,90,0.0,0.0,70,0.00,,,0.00,meteohub,2013-05-13 06:40:00,
2013-05-13 01:45:00,43.2,34.0,29.57,East,90,0.0,0.0,70,0.00,,,0.00,meteohub,2013-05-13 06:45:00,
2013-05-13 01:50:00,43.2,34.3,29.57,East,90,0.0,0.0,71,0.00,,,0.00,meteohub,2013-05-13 06:50:00,
2013-05-13 01:55:00,43.0,34.0,29.57,East,90,0.0,0.0,70,0.00,,,0.00,meteohub,2013-05-13 06:55:00,
2013-05-13 02:00:00,43.0,34.0,29.57,East,90,0.0,0.0,70,0.00,,,0.00,meteohub,2013-05-13 07:00:00,
2013-05-13 02:05:00,43.0,34.2,29.60,South,180,2.0,2.0,71,0.00,,,0.00,meteohub,2013-05-13 07:05:00,
2013-05-13 02:10:00,43.0,34.2,29.60,South,180,1.0,3.0,71,0.00,,,0.00,meteohub,2013-05-13 07:10:00,
2013-05-13 02:15:00,42.8,34.2,29.60,South,180,0.0,3.0,71,0.00,,,0.00,meteohub,2013-05-13 07:15:00,
2013-05-13 02:20:00,42.8,34.2,29.57,SSW,202,0.0,3.0,71,0.00,,,0.00,meteohub,2013-05-13 07:20:00,
2013-05-13 02:26:00,42.8,34.3,29.57,SSW,202,0.0,2.0,72,0.00,,,0.00,meteohub,2013-05-13 07:26:00,
2013-05-13 02:31:00,42.6,34.2,29.57,SSW,202,0.0,2.0,72,0.00,,,0.00,meteohub,2013-05-13 07:31:00,
2013-05-13 02:36:00,42.8,34.3,29.60,SSW,202,0.0,0.0,72,0.00,,,0.00,meteohub,2013-05-13 07:36:00,
2013-05-13 02:41:00,42.8,34.7,29.60,SSW,202,0.0,0.0,73,0.00,,,0.00,meteohub,2013-05-13 07:41:00,
2013-05-13 02:46:00,42.8,34.7,29.60,SSW,202,0.0,0.0,73,0.00,,,0.00,meteohub,2013-05-13 07:46:00,
2013-05-13 02:51:00,42.4,34.3,29.60,SSW,202,0.0,0.0,73,0.00,,,0.00,meteohub,2013-05-13 07:51:00,
2013-05-13 02:56:00,42.1,33.8,29.60,SSW,202,0.0,0.0,72,0.00,,,0.00,meteohub,2013-05-13 07:56:00,
2013-05-13 03:01:00,42.3,34.2,29.60,SSW,202,0.0,0.0,73,0.00,,,0.00,meteohub,2013-05-13 08:01:00,
2013-05-13 03:06:00,42.3,34.2,29.57,SSW,202,0.0,0.0,73,0.00,,,0.00,meteohub,2013-05-13 08:06:00,
2013-05-13 03:11:00,42.1,34.2,29.57,SSW,202,0.0,0.0,73,0.00,,,0.00,meteohub,2013-05-13 08:11:00,
2013-05-13 03:16:00,42.1,34.3,29.57,SSW,202,0.0,0.0,74,0.00,,,0.00,meteohub,2013-05-13 08:16:00,
2013-05-13 03:21:00,42.1,34.3,29.57,SSW,202,0.0,0.0,74,0.00,,,0.00,meteohub,2013-05-13 08:21:00,
2013-05-13 03:26:00,42.1,34.7,29.57,SSW,202,0.0,0.0,75,0.00,,,0.00,meteohub,2013-05-13 08:26:00,
2013-05-13 03:32:00,42.1,34.3,29.57,SSW,202,0.0,0.0,74,0.00,,,0.00,meteohub,2013-05-13 08:32:00,
2013-05-13 03:37:00,42.1,34.7,29.57,SSW,202,0.0,0.0,75,0.00,,,0.00,meteohub,2013-05-13 08:37:00,
2013-05-13 03:42:00,41.9,34.2,29.57,East,90,0.0,0.0,74,0.00,,,0.00,meteohub,2013-05-13 08:42:00,
2013-05-13 03:47:00,41.9,34.0,29.57,East,90,0.0,0.0,73,0.00,,,0.00,meteohub,2013-05-13 08:47:00,
2013-05-13 03:52:00,41.7,34.0,29.60,East,90,0.0,0.0,74,0.00,,,0.00,meteohub,2013-05-13 08:52:00,
2013-05-13 03:57:00,41.5,34.0,29.60,East,90,0.0,0.0,74,0.00,,,0.00,meteohub,2013-05-13 08:57:00,
2013-05-13 04:02:00,41.5,34.0,29.60,East,90,0.0,0.0,74,0.00,,,0.00,meteohub,2013-05-13 09:02:00,
2013-05-13 04:07:00,41.5,34.0,29.60,ESE,112,0.0,0.0,74,0.00,,,0.00,meteohub,2013-05-13 09:07:00,
2013-05-13 04:12:00,41.5,34.2,29.60,ESE,112,0.0,0.0,75,0.00,,,0.00,meteohub,2013-05-13 09:12:00,
2013-05-13 04:17:00,41.4,34.0,29.60,ESE,112,0.0,0.0,75,0.00,,,0.00,meteohub,2013-05-13 09:17:00,
2013-05-13 04:22:00,41.2,33.8,29.60,ESE,112,0.0,0.0,75,0.00,,,0.00,meteohub,2013-05-13 09:22:00,
2013-05-13 04:27:00,41.2,33.8,29.60,ESE,112,0.0,0.0,75,0.00,,,0.00,meteohub,2013-05-13 09:27:00,
2013-05-13 04:32:00,41.2,33.8,29.60,ESE,112,0.0,0.0,75,0.00,,,0.00,meteohub,2013-05-13 09:32:00,
2013-05-13 04:37:00,41.0,33.6,29.60,ESE,112,0.0,0.0,75,0.00,,,0.00,meteohub,2013-05-13 09:37:00,
2013-05-13 04:42:00,41.0,33.6,29.60,ESE,112,0.0,0.0,75,0.00,,,0.00,meteohub,2013-05-13 09:42:00,
2013-05-13 04:47:00,41.0,34.0,29.60,South,180,1.0,1.0,76,0.00,,,0.00,meteohub,2013-05-13 09:47:00,
2013-05-13 04:52:00,41.0,34.0,29.60,South,180,1.0,2.0,76,0.00,,,0.00,meteohub,2013-05-13 09:52:00,
2013-05-13 04:57:00,40.8,33.8,29.60,South,180,0.0,2.0,76,0.00,,,0.00,meteohub,2013-05-13 09:57:00,
2013-05-13 05:02:00,40.8,33.8,29.60,South,180,0.0,2.0,76,0.00,,,0.00,meteohub,2013-05-13 10:02:00,
2013-05-13 05:07:00,40.6,33.6,29.60,South,180,0.0,2.0,76,0.00,,,0.00,meteohub,2013-05-13 10:07:00,
2013-05-13 05:12:00,40.6,33.6,29.60,South,180,0.0,0.0,76,0.00,,,0.00,meteohub,2013-05-13 10:12:00,
2013-05-13 05:17:00,40.3,33.3,29.60,South,180,0.0,0.0,76,0.00,,,0.00,meteohub,2013-05-13 10:17:00,
2013-05-13 05:22:00,40.1,33.1,29.60,South,180,0.0,0.0,76,0.00,,,0.00,meteohub,2013-05-13 10:22:00,
2013-05-13 05:27:00,40.1,33.1,29.60,South,180,0.0,0.0,76,0.00,,,0.00,meteohub,2013-05-13 10:27:00,
2013-05-13 05:32:00,40.1,33.1,29.60,South,180,0.0,0.0,76,0.00,,,0.00,meteohub,2013-05-13 10:32:00,
2013-05-13 05:37:00,40.1,33.1,29.60,SSW,202,0.0,1.0,76,0.00,,,0.00,meteohub,2013-05-13 10:37:00,
2013-05-13 05:42:00,40.3,33.6,29.60,SSW,202,1.0,2.0,77,0.00,,,0.00,meteohub,2013-05-13 10:42:00,
2013-05-13 05:47:00,40.3,33.3,29.60,SSW,202,0.0,2.0,76,0.00,,,0.00,meteohub,2013-05-13 10:47:00,
2013-05-13 05:52:00,40.3,33.6,29.60,SSW,202,0.0,2.0,77,0.00,,,0.00,meteohub,2013-05-13 10:52:00,
2013-05-13 05:57:00,40.3,33.6,29.60,SSW,202,0.0,2.0,77,0.00,,,0.00,meteohub,2013-05-13 10:57:00,
2013-05-13 06:02:00,40.3,33.6,29.60,SSW,202,0.0,1.0,77,0.00,,,0.00,meteohub,2013-05-13 11:02:00,
2013-05-13 06:07:00,40.3,33.6,29.60,SSW,202,0.0,0.0,77,0.00,,,0.00,meteohub,2013-05-13 11:07:00,
2013-05-13 06:12:00,40.5,33.8,29.60,SSW,202,0.0,0.0,77,0.00,,,0.00,meteohub,2013-05-13 11:12:00,
2013-05-13 06:17:00,40.8,34.2,29.60,SSW,202,0.0,0.0,77,0.00,,,0.00,meteohub,2013-05-13 11:17:00,
2013-05-13 06:22:00,41.0,34.0,29.60,WSW,248,0.0,0.0,76,0.00,,,0.00,meteohub,2013-05-13 11:22:00,
2013-05-13 06:27:00,41.2,34.5,29.60,WSW,248,0.0,0.0,77,0.00,,,0.00,meteohub,2013-05-13 11:27:00,
2013-05-13 06:32:00,41.5,34.9,29.60,WSW,248,0.0,0.0,77,0.00,,,0.00,meteohub,2013-05-13 11:32:00,
2013-05-13 06:37:00,42.1,35.4,29.60,WSW,248,0.0,0.0,77,0.00,,,0.00,meteohub,2013-05-13 11:37:00,
2013-05-13 06:42:00,43.0,36.3,29.60,WSW,248,1.0,0.0,77,0.00,,,0.00,meteohub,2013-05-13 11:42:00,
2013-05-13 06:47:00,43.9,37.2,29.60,SW,225,2.0,3.0,77,0.00,,,0.00,meteohub,2013-05-13 11:47:00,
2013-05-13 06:52:00,44.8,37.8,29.63,WSW,248,2.0,3.0,76,0.00,,,0.00,meteohub,2013-05-13 11:52:00,
2013-05-13 06:57:00,45.9,38.5,29.63,SSW,202,2.0,3.0,75,0.00,,,0.00,meteohub,2013-05-13 11:57:00,
2013-05-13 07:02:00,46.6,38.5,29.63,SW,225,4.0,4.0,73,0.00,,,0.00,meteohub,2013-05-13 12:02:00,
2013-05-13 07:07:00,47.8,38.8,29.63,WSW,248,4.0,5.0,71,0.00,,,0.00,meteohub,2013-05-13 12:07:00,
2013-05-13 07:12:00,48.7,37.9,29.63,SSW,202,3.0,5.0,66,0.00,,,0.00,meteohub,2013-05-13 12:12:00,
2013-05-13 07:17:00,48.9,37.8,29.63,WSW,248,3.0,5.0,65,0.00,,,0.00,meteohub,2013-05-13 12:17:00,
2013-05-13 07:22:00,48.9,36.5,29.63,SW,225,3.0,5.0,62,0.00,,,0.00,meteohub,2013-05-13 12:22:00,
2013-05-13 07:27:00,49.3,36.9,29.63,SW,225,4.0,5.0,62,0.00,,,0.00,meteohub,2013-05-13 12:27:00,
2013-05-13 07:32:00,49.5,36.1,29.63,SSW,202,4.0,5.0,60,0.00,,,0.00,meteohub,2013-05-13 12:32:00,
2013-05-13 07:37:00,49.8,36.1,29.63,SW,225,3.0,5.0,59,0.00,,,0.00,meteohub,2013-05-13 12:37:00,
2013-05-13 07:42:00,50.0,36.3,29.63,SW,225,2.0,5.0,59,0.00,,,0.00,meteohub,2013-05-13 12:42:00,
2013-05-13 07:47:00,50.0,34.9,29.63,SW,225,5.0,5.0,56,0.00,,,0.00,meteohub,2013-05-13 12:47:00,
2013-05-13 07:52:00,50.2,35.6,29.63,SSW,202,4.0,6.0,57,0.00,,,0.00,meteohub,2013-05-13 12:52:00,
2013-05-13 07:57:00,50.4,34.9,29.63,WSW,248,4.0,6.0,55,0.00,,,0.00,meteohub,2013-05-13 12:57:00,
2013-05-13 08:02:00,50.5,35.1,29.63,SSW,202,6.0,6.0,55,0.00,,,0.00,meteohub,2013-05-13 13:02:00,
2013-05-13 08:07:00,50.9,34.9,29.63,SW,225,2.0,6.0,54,0.00,,,0.00,meteohub,2013-05-13 13:07:00,
2013-05-13 08:12:00,51.4,35.4,29.63,SW,225,3.0,6.0,54,0.00,,,0.00,meteohub,2013-05-13 13:12:00,
2013-05-13 08:17:00,51.8,35.2,29.63,WSW,248,5.0,6.0,53,0.00,,,0.00,meteohub,2013-05-13 13:17:00,
2013-05-13 08:22:00,52.0,33.4,29.63,South,180,4.0,8.0,49,0.00,,,0.00,meteohub,2013-05-13 13:22:00,
2013-05-13 08:27:00,52.7,34.7,29.63,SW,225,4.0,8.0,50,0.00,,,0.00,meteohub,2013-05-13 13:27:00,
2013-05-13 08:32:00,52.9,34.7,29.63,SSW,202,7.0,9.0,50,0.00,,,0.00,meteohub,2013-05-13 13:32:00,
2013-05-13 08:37:00,53.4,34.3,29.60,SSW,202,4.0,9.0,48,0.00,,,0.00,meteohub,2013-05-13 13:37:00,
2013-05-13 08:42:00,53.8,34.5,29.60,South,180,4.0,7.0,48,0.00,,,0.00,meteohub,2013-05-13 13:42:00,
2013-05-13 08:47:00,54.3,34.5,29.60,West,270,6.0,7.0,47,0.00,,,0.00,meteohub,2013-05-13 13:47:00,
2013-05-13 08:52:00,54.9,34.0,29.63,WNW,292,5.0,7.0,45,0.00,,,0.00,meteohub,2013-05-13 13:52:00,
2013-05-13 08:57:00,55.0,31.8,29.63,WSW,248,3.0,8.0,41,0.00,,,0.00,meteohub,2013-05-13 13:57:00,
2013-05-13 09:02:00,55.6,31.6,29.63,SW,225,3.0,8.0,40,0.00,,,0.00,meteohub,2013-05-13 14:02:00,
2013-05-13 09:07:00,56.1,33.4,29.63,SSW,202,6.0,8.0,42,0.00,,,0.00,meteohub,2013-05-13 14:07:00,
2013-05-13 09:12:00,56.5,32.5,29.63,West,270,4.0,8.0,40,0.00,,,0.00,meteohub,2013-05-13 14:12:00,
2013-05-13 09:17:00,57.0,32.4,29.63,SSW,202,3.0,8.0,39,0.00,,,0.00,meteohub,2013-05-13 14:17:00,
2013-05-13 09:22:00,57.6,33.4,29.63,West,270,7.0,7.0,40,0.00,,,0.00,meteohub,2013-05-13 14:22:00,
2013-05-13 09:27:00,57.7,30.4,29.63,SSW,202,4.0,8.0,35,0.00,,,0.00,meteohub,2013-05-13 14:27:00,
2013-05-13 09:32:00,58.1,31.3,29.63,WSW,248,7.0,9.0,36,0.00,,,0.00,meteohub,2013-05-13 14:32:00,
2013-05-13 09:37:00,58.8,32.0,29.63,SW,225,7.0,9.0,36,0.00,,,0.00,meteohub,2013-05-13 14:37:00,
2013-05-13 09:42:00,58.6,30.4,29.63,SW,225,4.0,9.0,34,0.00,,,0.00,meteohub,2013-05-13 14:42:00,
2013-05-13 09:47:00,59.2,28.6,29.63,WSW,248,11.0,11.0,31,0.00,,,0.00,meteohub,2013-05-13 14:47:00,
2013-05-13 09:52:00,59.7,29.1,29.63,SW,225,7.0,11.0,31,0.00,,,0.00,meteohub,2013-05-13 14:52:00,
2013-05-13 09:57:00,60.6,31.5,29.63,West,270,4.0,11.0,33,0.00,,,0.00,meteohub,2013-05-13 14:57:00,
2013-05-13 10:02:00,61.3,30.6,29.63,WSW,248,10.0,11.0,31,0.00,,,0.00,meteohub,2013-05-13 15:02:00,
2013-05-13 10:08:00,61.3,28.9,29.63,WSW,248,11.0,13.0,29,0.00,,,0.00,meteohub,2013-05-13 15:08:00,
2013-05-13 10:13:00,61.5,28.9,29.63,NNW,338,4.0,13.0,29,0.00,,,0.00,meteohub,2013-05-13 15:13:00,
2013-05-13 10:18:00,61.9,30.9,29.60,West,270,6.0,13.0,31,0.00,,,0.00,meteohub,2013-05-13 15:18:00,
2013-05-13 10:23:00,62.2,27.0,29.60,West,270,7.0,13.0,26,0.00,,,0.00,meteohub,2013-05-13 15:23:00,
2013-05-13 10:28:00,63.0,26.6,29.60,WSW,248,6.0,9.0,25,0.00,,,0.00,meteohub,2013-05-13 15:28:00,
2013-05-13 10:33:00,63.5,26.1,29.63,West,270,5.0,9.0,24,0.00,,,0.00,meteohub,2013-05-13 15:33:00,
2013-05-13 10:38:00,63.3,25.9,29.63,SSW,202,5.0,10.0,24,0.00,,,0.00,meteohub,2013-05-13 15:38:00,
2013-05-13 10:43:00,63.7,27.3,29.63,NNW,338,4.0,10.0,25,0.00,,,0.00,meteohub,2013-05-13 15:43:00,
2013-05-13 10:48:00,63.9,28.4,29.63,SW,225,4.0,10.0,26,0.00,,,0.00,meteohub,2013-05-13 15:48:00,
2013-05-13 10:53:00,63.3,27.0,29.63,West,270,4.0,9.0,25,0.00,,,0.00,meteohub,2013-05-13 15:53:00,
2013-05-13 10:58:00,63.5,26.1,29.63,West,270,6.0,11.0,24,0.00,,,0.00,meteohub,2013-05-13 15:58:00,
2013-05-13 11:04:00,63.3,27.0,29.63,South,180,4.0,11.0,25,0.00,,,0.00,meteohub,2013-05-13 16:04:00,
2013-05-13 11:09:00,63.5,27.1,29.63,SW,225,6.0,11.0,25,0.00,,,0.00,meteohub,2013-05-13 16:09:00,
2013-05-13 11:14:00,63.5,26.1,29.63,WSW,248,3.0,8.0,24,0.00,,,0.00,meteohub,2013-05-13 16:14:00,
2013-05-13 11:19:00,63.7,26.2,29.63,West,270,5.0,10.0,24,0.00,,,0.00,meteohub,2013-05-13 16:19:00,
2013-05-13 11:24:00,63.7,26.2,29.63,West,270,10.0,10.0,24,0.00,,,0.00,meteohub,2013-05-13 16:24:00,
2013-05-13 11:29:00,63.5,26.1,29.63,NNW,338,9.0,10.0,24,0.00,,,0.00,meteohub,2013-05-13 16:29:00,
2013-05-13 11:34:00,63.5,26.1,29.63,WNW,292,6.0,10.0,24,0.00,,,0.00,meteohub,2013-05-13 16:34:00,
2013-05-13 11:39:00,63.5,27.1,29.63,NW,315,2.0,10.0,25,0.00,,,0.00,meteohub,2013-05-13 16:39:00,
2013-05-13 11:44:00,63.7,27.3,29.63,NNW,338,3.0,9.0,25,0.00,,,0.00,meteohub,2013-05-13 16:44:00,
2013-05-13 11:49:00,63.5,26.1,29.63,WNW,292,5.0,9.0,24,0.00,,,0.00,meteohub,2013-05-13 16:49:00,
2013-05-13 11:54:00,63.7,27.3,29.63,SW,225,6.0,7.0,25,0.00,,,0.00,meteohub,2013-05-13 16:54:00,
2013-05-13 11:59:00,64.0,27.5,29.63,SW,225,4.0,7.0,25,0.00,,,0.00,meteohub,2013-05-13 16:59:00,
2013-05-13 12:04:00,63.9,26.4,29.60,WSW,248,9.0,9.0,24,0.00,,,0.00,meteohub,2013-05-13 17:04:00,
2013-05-13 12:10:00,63.7,26.2,29.60,WNW,292,2.0,9.0,24,0.00,,,0.00,meteohub,2013-05-13 17:10:00,
2013-05-13 12:15:00,63.9,26.4,29.60,SW,225,4.0,9.0,24,0.00,,,0.00,meteohub,2013-05-13 17:15:00,
2013-05-13 12:20:00,63.9,27.3,29.63,West,270,6.0,9.0,25,0.00,,,0.00,meteohub,2013-05-13 17:20:00,
2013-05-13 12:25:00,63.9,26.4,29.63,WSW,248,4.0,11.0,24,0.00,,,0.00,meteohub,2013-05-13 17:25:00,
2013-05-13 12:30:00,64.4,25.9,29.63,WNW,292,2.0,11.0,23,0.00,,,0.00,meteohub,2013-05-13 17:30:00,
2013-05-13 12:35:00,64.4,27.0,29.63,SSW,202,3.0,11.0,24,0.00,,,0.00,meteohub,2013-05-13 17:35:00,
2013-05-13 12:40:00,64.6,27.0,29.63,NNW,338,3.0,8.0,24,0.00,,,0.00,meteohub,2013-05-13 17:40:00,
2013-05-13 12:45:00,64.8,26.2,29.63,SW,225,3.0,11.0,23,0.00,,,0.00,meteohub,2013-05-13 17:45:00,
2013-05-13 12:50:00,65.1,27.5,29.63,West,270,9.0,13.0,24,0.00,,,0.00,meteohub,2013-05-13 17:50:00,
2013-05-13 12:57:00,65.7,27.9,29.63,WNW,292,6.0,13.0,24,0.00,,,0.00,meteohub,2013-05-13 17:57:00,
2013-05-13 13:02:00,65.8,28.0,29.63,North,0,6.0,9.0,24,0.00,,,0.00,meteohub,2013-05-13 18:02:00,
2013-05-13 13:07:00,65.8,27.1,29.63,North,0,3.0,9.0,23,0.00,,,0.00,meteohub,2013-05-13 18:07:00,
2013-05-13 13:12:00,66.2,27.3,29.63,WSW,248,6.0,8.0,23,0.00,,,0.00,meteohub,2013-05-13 18:12:00,
2013-05-13 13:17:00,66.2,27.3,29.63,East,90,2.0,8.0,23,0.00,,,0.00,meteohub,2013-05-13 18:17:00,
2013-05-13 13:22:00,66.2,27.3,29.63,NW,315,2.0,10.0,23,0.00,,,0.00,meteohub,2013-05-13 18:22:00,
2013-05-13 13:27:00,66.6,27.7,29.63,SW,225,5.0,10.0,23,0.00,,,0.00,meteohub,2013-05-13 18:27:00,
2013-05-13 13:32:00,66.9,28.0,29.63,NNE,22,3.0,10.0,23,0.00,,,0.00,meteohub,2013-05-13 18:32:00,
2013-05-13 13:37:00,67.3,28.2,29.63,North,0,2.0,10.0,23,0.00,,,0.00,meteohub,2013-05-13 18:37:00,
2013-05-13 13:42:00,67.6,28.6,29.63,SW,225,3.0,10.0,23,0.00,,,0.00,meteohub,2013-05-13 18:42:00,
2013-05-13 13:48:00,67.8,28.8,29.63,WSW,248,8.0,9.0,23,0.00,,,0.00,meteohub,2013-05-13 18:48:00,
2013-05-13 13:53:00,68.0,28.9,29.63,SSE,158,6.0,9.0,23,0.00,,,0.00,meteohub,2013-05-13 18:53:00,
2013-05-13 13:58:00,68.2,28.9,29.63,SW,225,6.0,9.0,23,0.00,,,0.00,meteohub,2013-05-13 18:58:00,
2013-05-13 14:03:00,68.4,29.1,29.63,NW,315,3.0,9.0,23,0.00,,,0.00,meteohub,2013-05-13 19:03:00,
2013-05-13 14:08:00,68.0,27.9,29.60,WNW,292,3.0,11.0,22,0.00,,,0.00,meteohub,2013-05-13 19:08:00,
2013-05-13 14:13:00,68.2,27.9,29.60,WNW,292,7.0,11.0,22,0.00,,,0.00,meteohub,2013-05-13 19:13:00,
2013-05-13 14:18:00,68.2,27.9,29.60,NNW,338,5.0,10.0,22,0.00,,,0.00,meteohub,2013-05-13 19:18:00,
2013-05-13 14:23:00,68.2,27.9,29.60,North,0,2.0,10.0,22,0.00,,,0.00,meteohub,2013-05-13 19:23:00,
2013-05-13 14:28:00,69.1,29.8,29.60,West,270,4.0,10.0,23,0.00,,,0.00,meteohub,2013-05-13 19:28:00,
2013-05-13 14:33:00,69.4,30.0,29.60,SW,225,6.0,10.0,23,0.00,,,0.00,meteohub,2013-05-13 19:33:00,
2013-05-13 14:38:00,69.3,28.8,29.60,West,270,9.0,10.0,22,0.00,,,0.00,meteohub,2013-05-13 19:38:00,
2013-05-13 14:43:00,69.3,29.8,29.60,WSW,248,6.0,10.0,23,0.00,,,0.00,meteohub,2013-05-13 19:43:00,
2013-05-13 14:48:00,69.8,29.3,29.57,South,180,4.0,9.0,22,0.00,,,0.00,meteohub,2013-05-13 19:48:00,
2013-05-13 14:54:00,69.8,29.3,29.57,SSW,202,5.0,10.0,22,0.00,,,0.00,meteohub,2013-05-13 19:54:00,
2013-05-13 14:59:00,70.3,30.9,29.57,WSW,248,6.0,10.0,23,0.00,,,0.00,meteohub,2013-05-13 19:59:00,
2013-05-13 15:04:00,70.5,29.8,29.57,SE,135,3.0,10.0,22,0.00,,,0.00,meteohub,2013-05-13 20:04:00,
2013-05-13 15:09:00,70.7,30.0,29.57,North,0,3.0,8.0,22,0.00,,,0.00,meteohub,2013-05-13 20:09:00,
2013-05-13 15:14:00,70.9,30.2,29.57,West,270,6.0,8.0,22,0.00,,,0.00,meteohub,2013-05-13 20:14:00,
2013-05-13 15:19:00,70.9,30.2,29.57,SW,225,5.0,9.0,22,0.00,,,0.00,meteohub,2013-05-13 20:19:00,
2013-05-13 15:24:00,70.9,30.2,29.57,WSW,248,8.0,10.0,22,0.00,,,0.00,meteohub,2013-05-13 20:24:00,
2013-05-13 15:29:00,71.1,30.4,29.57,SSW,202,8.0,10.0,22,0.00,,,0.00,meteohub,2013-05-13 20:29:00,
2013-05-13 15:34:00,71.4,30.6,29.57,WNW,292,3.0,10.0,22,0.00,,,0.00,meteohub,2013-05-13 20:34:00,
2013-05-13 15:39:00,71.2,30.6,29.57,North,0,2.0,10.0,22,0.00,,,0.00,meteohub,2013-05-13 20:39:00,
2013-05-13 15:44:00,71.1,30.4,29.57,NNE,22,3.0,10.0,22,0.00,,,0.00,meteohub,2013-05-13 20:44:00,
2013-05-13 15:49:00,71.6,30.7,29.57,South,180,2.0,8.0,22,0.00,,,0.00,meteohub,2013-05-13 20:49:00,
2013-05-13 15:54:00,71.8,30.9,29.57,South,180,2.0,8.0,22,0.00,,,0.00,meteohub,2013-05-13 20:54:00,
2013-05-13 16:00:00,71.6,30.7,29.57,NW,315,4.0,6.0,22,0.00,,,0.00,meteohub,2013-05-13 21:00:00,
2013-05-13 16:05:00,71.4,30.6,29.57,WNW,292,10.0,10.0,22,0.00,,,0.00,meteohub,2013-05-13 21:05:00,
2013-05-13 16:10:00,70.7,30.0,29.57,NW,315,6.0,11.0,22,0.00,,,0.00,meteohub,2013-05-13 21:10:00,
2013-05-13 16:15:00,70.9,30.2,29.57,NW,315,4.0,11.0,22,0.00,,,0.00,meteohub,2013-05-13 21:15:00,
2013-05-13 16:20:00,70.3,29.7,29.57,WNW,292,1.0,11.0,22,0.00,,,0.00,meteohub,2013-05-13 21:20:00,
2013-05-13 16:25:00,71.2,30.6,29.57,SSW,202,4.0,7.0,22,0.00,,,0.00,meteohub,2013-05-13 21:25:00,
2013-05-13 16:30:00,71.1,30.4,29.57,NNW,338,4.0,7.0,22,0.00,,,0.00,meteohub,2013-05-13 21:30:00,
2013-05-13 16:35:00,70.0,29.5,29.57,WSW,248,6.0,7.0,22,0.00,,,0.00,meteohub,2013-05-13 21:35:00,
2013-05-13 16:40:00,70.0,29.5,29.57,South,180,2.0,7.0,22,0.00,,,0.00,meteohub,2013-05-13 21:40:00,
2013-05-13 16:45:00,69.4,30.0,29.57,South,180,3.0,7.0,23,0.00,,,0.00,meteohub,2013-05-13 21:45:00,
2013-05-13 16:50:00,69.3,29.8,29.57,SW,225,6.0,7.0,23,0.00,,,0.00,meteohub,2013-05-13 21:50:00,
2013-05-13 16:55:00,69.6,30.2,29.57,WSW,248,4.0,8.0,23,0.00,,,0.00,meteohub,2013-05-13 21:55:00,
2013-05-13 17:00:00,69.4,30.0,29.57,NW,315,3.0,8.0,23,0.00,,,0.00,meteohub,2013-05-13 22:00:00,
2013-05-13 17:05:00,69.6,30.2,29.57,NW,315,6.0,7.0,23,0.00,,,0.00,meteohub,2013-05-13 22:05:00,
2013-05-13 17:11:00,69.1,29.8,29.57,NW,315,4.0,7.0,23,0.00,,,0.00,meteohub,2013-05-13 22:11:00,
2013-05-13 17:16:00,69.1,29.8,29.57,WNW,292,3.0,6.0,23,0.00,,,0.00,meteohub,2013-05-13 22:16:00,
2013-05-13 17:21:00,69.1,28.8,29.57,West,270,4.0,6.0,22,0.00,,,0.00,meteohub,2013-05-13 22:21:00,
2013-05-13 17:26:00,69.1,29.8,29.57,WNW,292,3.0,6.0,23,0.00,,,0.00,meteohub,2013-05-13 22:26:00,
2013-05-13 17:31:00,68.9,29.7,29.57,SW,225,3.0,6.0,23,0.00,,,0.00,meteohub,2013-05-13 22:31:00,
2013-05-13 17:36:00,68.7,29.5,29.54,West,270,7.0,8.0,23,0.00,,,0.00,meteohub,2013-05-13 22:36:00,
2013-05-13 17:41:00,68.7,29.5,29.54,WNW,292,2.0,8.0,23,0.00,,,0.00,meteohub,2013-05-13 22:41:00,
2013-05-13 17:46:00,68.4,29.1,29.54,SW,225,4.0,8.0,23,0.00,,,0.00,meteohub,2013-05-13 22:46:00,
2013-05-13 17:51:00,68.2,28.9,29.54,WSW,248,5.0,8.0,23,0.00,,,0.00,meteohub,2013-05-13 22:51:00,
2013-05-13 17:56:00,68.2,28.9,29.54,WSW,248,3.0,8.0,23,0.00,,,0.00,meteohub,2013-05-13 22:56:00,
2013-05-13 18:01:00,68.2,28.9,29.54,WSW,248,2.0,6.0,23,0.00,,,0.00,meteohub,2013-05-13 23:01:00,
2013-05-13 18:06:00,68.0,28.9,29.54,South,180,4.0,6.0,23,0.00,,,0.00,meteohub,2013-05-13 23:06:00,
2013-05-13 18:11:00,67.8,29.8,29.54,South,180,3.0,6.0,24,0.00,,,0.00,meteohub,2013-05-13 23:11:00,
2013-05-13 18:16:00,67.6,29.7,29.54,SSE,158,4.0,6.0,24,0.00,,,0.00,meteohub,2013-05-13 23:16:00,
2013-05-13 18:22:00,67.8,29.8,29.51,South,180,6.0,6.0,24,0.00,,,0.00,meteohub,2013-05-13 23:22:00,
2013-05-13 18:27:00,67.3,29.3,29.51,South,180,6.0,7.0,24,0.00,,,0.00,meteohub,2013-05-13 23:27:00,
2013-05-13 18:32:00,67.3,29.3,29.51,SSW,202,5.0,7.0,24,0.00,,,0.00,meteohub,2013-05-13 23:32:00,
2013-05-13 18:37:00,67.3,29.3,29.51,South,180,5.0,7.0,24,0.00,,,0.00,meteohub,2013-05-13 23:37:00,
2013-05-13 18:42:00,67.1,29.1,29.51,West,270,3.0,6.0,24,0.00,,,0.00,meteohub,2013-05-13 23:42:00,
2013-05-13 18:47:00,66.9,28.9,29.51,SSE,158,2.0,6.0,24,0.00,,,0.00,meteohub,2013-05-13 23:47:00,
2013-05-13 18:52:00,66.6,28.8,29.51,South,180,5.0,6.0,24,0.00,,,0.00,meteohub,2013-05-13 23:52:00,
2013-05-13 18:57:00,66.4,28.6,29.51,SSE,158,3.0,5.0,24,0.00,,,0.00,meteohub,2013-05-13 23:57:00,
2013-05-13 19:02:00,66.2,28.4,29.51,SW,225,2.0,5.0,24,0.00,,,0.00,meteohub,2013-05-14 00:02:00,
2013-05-13 19:07:00,66.2,28.4,29.51,South,180,3.0,5.0,24,0.00,,,0.00,meteohub,2013-05-14 00:07:00,
2013-05-13 19:12:00,65.8,29.1,29.51,SSE,158,2.0,5.0,25,0.00,,,0.00,meteohub,2013-05-14 00:12:00,
2013-05-13 19:17:00,65.5,28.8,29.51,ESE,112,0.0,5.0,25,0.00,,,0.00,meteohub,2013-05-14 00:17:00,
2013-05-13 19:22:00,65.3,28.6,29.54,ESE,112,0.0,3.0,25,0.00,,,0.00,meteohub,2013-05-14 00:22:00,
2013-05-13 19:27:00,64.9,28.4,29.54,ESE,112,0.0,3.0,25,0.00,,,0.00,meteohub,2013-05-14 00:27:00,
2013-05-13 19:32:00,64.6,28.0,29.54,ESE,112,0.0,0.0,25,0.00,,,0.00,meteohub,2013-05-14 00:32:00,
2013-05-13 19:37:00,64.0,28.6,29.51,ESE,112,0.0,0.0,26,0.00,,,0.00,meteohub,2013-05-14 00:37:00,
2013-05-13 19:42:00,63.7,29.1,29.51,ESE,112,0.0,0.0,27,0.00,,,0.00,meteohub,2013-05-14 00:42:00,
2013-05-13 19:47:00,63.1,29.5,29.51,ESE,112,0.0,0.0,28,0.00,,,0.00,meteohub,2013-05-14 00:47:00,
2013-05-13 19:52:00,62.6,30.0,29.51,East,90,0.0,0.0,29,0.00,,,0.00,meteohub,2013-05-14 00:52:00,
2013-05-13 19:57:00,62.2,31.3,29.51,East,90,0.0,0.0,31,0.00,,,0.00,meteohub,2013-05-14 00:57:00,
2013-05-13 20:02:00,61.7,31.6,29.51,East,90,0.0,0.0,32,0.00,,,0.00,meteohub,2013-05-14 01:02:00,
2013-05-13 20:07:00,61.3,32.7,29.51,East,90,0.0,0.0,34,0.00,,,0.00,meteohub,2013-05-14 01:07:00,
2013-05-13 20:12:00,60.8,32.4,29.51,East,90,0.0,0.0,34,0.00,,,0.00,meteohub,2013-05-14 01:12:00,
2013-05-13 20:17:00,60.4,32.0,29.51,East,90,0.0,0.0,34,0.00,,,0.00,meteohub,2013-05-14 01:17:00,
2013-05-13 20:22:00,60.1,32.4,29.51,East,90,0.0,0.0,35,0.00,,,0.00,meteohub,2013-05-14 01:22:00,
2013-05-13 20:27:00,59.9,32.2,29.51,East,90,0.0,0.0,35,0.00,,,0.00,meteohub,2013-05-14 01:27:00,
2013-05-13 20:32:00,59.5,31.8,29.51,East,90,0.0,0.0,35,0.00,,,0.00,meteohub,2013-05-14 01:32:00,
2013-05-13 20:37:00,59.2,32.4,29.54,East,90,0.0,0.0,36,0.00,,,0.00,meteohub,2013-05-14 01:37:00,
2013-05-13 20:42:00,58.8,32.7,29.54,East,90,0.0,0.0,37,0.00,,,0.00,meteohub,2013-05-14 01:42:00,
2013-05-13 20:47:00,58.6,32.5,29.54,East,90,0.0,0.0,37,0.00,,,0.00,meteohub,2013-05-14 01:47:00,
2013-05-13 20:52:00,58.5,32.4,29.51,NE,45,0.0,0.0,37,0.00,,,0.00,meteohub,2013-05-14 01:52:00,
2013-05-13 20:57:00,58.1,32.0,29.51,NE,45,0.0,0.0,37,0.00,,,0.00,meteohub,2013-05-14 01:57:00,
2013-05-13 21:02:00,57.9,32.5,29.51,NE,45,0.0,0.0,38,0.00,,,0.00,meteohub,2013-05-14 02:02:00,
2013-05-13 21:07:00,57.9,32.5,29.51,NE,45,0.0,0.0,38,0.00,,,0.00,meteohub,2013-05-14 02:07:00,
2013-05-13 21:12:00,57.7,32.9,29.51,NE,45,0.0,0.0,39,0.00,,,0.00,meteohub,2013-05-14 02:12:00,
2013-05-13 21:17:00,57.6,34.2,29.51,South,180,0.0,0.0,41,0.00,,,0.00,meteohub,2013-05-14 02:17:00,
2013-05-13 21:22:00,57.4,34.0,29.51,SSE,158,0.0,0.0,41,0.00,,,0.00,meteohub,2013-05-14 02:22:00,
2013-05-13 21:27:00,57.2,33.1,29.51,SSE,158,0.0,0.0,40,0.00,,,0.00,meteohub,2013-05-14 02:27:00,
2013-05-13 21:32:00,57.0,34.2,29.51,SSE,158,0.0,0.0,42,0.00,,,0.00,meteohub,2013-05-14 02:32:00,
2013-05-13 21:37:00,57.0,34.7,29.51,SSE,158,0.0,1.0,43,0.00,,,0.00,meteohub,2013-05-14 02:37:00,
2013-05-13 21:42:00,57.2,34.9,29.51,South,180,3.0,3.0,43,0.00,,,0.00,meteohub,2013-05-14 02:42:00,
2013-05-13 21:47:00,57.2,34.3,29.51,SE,135,0.0,3.0,42,0.00,,,0.00,meteohub,2013-05-14 02:47:00,
2013-05-13 21:52:00,57.2,34.3,29.51,South,180,0.0,3.0,42,0.00,,,0.00,meteohub,2013-05-14 02:52:00,
2013-05-13 21:57:00,57.2,33.8,29.51,South,180,0.0,3.0,41,0.00,,,0.00,meteohub,2013-05-14 02:57:00,
2013-05-13 22:02:00,57.2,33.8,29.51,South,180,0.0,2.0,41,0.00,,,0.00,meteohub,2013-05-14 03:02:00,
2013-05-13 22:08:00,57.2,33.8,29.51,South,180,0.0,2.0,41,0.00,,,0.00,meteohub,2013-05-14 03:08:00,
2013-05-13 22:13:00,57.0,33.6,29.51,South,180,0.0,2.0,41,0.00,,,0.00,meteohub,2013-05-14 03:13:00,
2013-05-13 22:18:00,56.8,34.0,29.51,South,180,0.0,1.0,42,0.00,,,0.00,meteohub,2013-05-14 03:18:00,
2013-05-13 22:23:00,56.8,34.0,29.51,South,180,0.0,0.0,42,0.00,,,0.00,meteohub,2013-05-14 03:23:00,
2013-05-13 22:28:00,56.7,33.8,29.51,ESE,112,0.0,0.0,42,0.00,,,0.00,meteohub,2013-05-14 03:28:00,
2013-05-13 22:33:00,56.7,33.8,29.51,ESE,112,0.0,1.0,42,0.00,,,0.00,meteohub,2013-05-14 03:33:00,
2013-05-13 22:38:00,56.7,33.8,29.51,South,180,0.0,1.0,42,0.00,,,0.00,meteohub,2013-05-14 03:38:00,
2013-05-13 22:43:00,56.8,34.0,29.51,SSW,202,2.0,3.0,42,0.00,,,0.00,meteohub,2013-05-14 03:43:00,
2013-05-13 22:48:00,56.8,34.0,29.51,East,90,0.0,3.0,42,0.00,,,0.00,meteohub,2013-05-14 03:48:00,
2013-05-13 22:53:00,56.8,34.0,29.51,SE,135,0.0,4.0,42,0.00,,,0.00,meteohub,2013-05-14 03:53:00,
2013-05-13 22:58:00,56.8,33.4,29.51,SSE,158,2.0,4.0,41,0.00,,,0.00,meteohub,2013-05-14 03:58:00,
2013-05-13 23:01:00,56.8,34.0,29.51,East,90,0.0,4.0,42,0.00,,,0.00,meteohub,2013-05-14 04:01:00,
2013-05-13 23:02:00,56.8,33.4,29.51,South,180,4.0,4.0,41,0.00,,,0.00,meteohub,2013-05-14 04:02:00,
2013-05-13 23:03:00,56.8,33.4,29.51,ESE,112,2.0,4.0,41,0.00,,,0.00,meteohub,2013-05-14 04:03:00,
2013-05-13 23:08:00,57.0,33.6,29.51,SW,225,0.0,4.0,41,0.00,,,0.00,meteohub,2013-05-14 04:08:00,
2013-05-13 23:13:00,56.8,33.4,29.51,South,180,2.0,4.0,41,0.00,,,0.00,meteohub,2013-05-14 04:13:00,
2013-05-13 23:18:00,56.8,33.4,29.51,South,180,2.0,4.0,41,0.00,,,0.00,meteohub,2013-05-14 04:18:00,
2013-05-13 23:23:00,56.8,33.4,29.51,South,180,1.0,6.0,41,0.00,,,0.00,meteohub,2013-05-14 04:23:00,
2013-05-13 23:28:00,56.8,33.4,29.51,ESE,112,2.0,6.0,41,0.00,,,0.00,meteohub,2013-05-14 04:28:00,
2013-05-13 23:33:00,56.8,33.4,29.51,SSE,158,1.0,4.0,41,0.00,,,0.00,meteohub,2013-05-14 04:33:00,
2013-05-13 23:38:00,56.7,33.3,29.51,ESE,112,0.0,3.0,41,0.00,,,0.00,meteohub,2013-05-14 04:38:00,
2013-05-13 23:43:00,56.7,33.8,29.51,East,90,0.0,3.0,42,0.00,,,0.00,meteohub,2013-05-14 04:43:00,
2013-05-13 23:49:00,56.5,33.6,29.51,East,90,0.0,3.0,42,0.00,,,0.00,meteohub,2013-05-14 04:49:00,
2013-05-13 23:54:00,56.3,33.6,29.51,East,90,0.0,2.0,42,0.00,,,0.00,meteohub,2013-05-14 04:54:00,
2013-05-13 23:59:00,56.3,34.2,29.51,ESE,112,2.0,2.0,43,0.00,,,0.00,meteohub,2013-05-14 04:59:00,